Time;durP1;ratioP1;P1;durP2;ratioP2;P2;SDS_P1;SDS_P2;PMS_P1;PMS_P2;Temp;Humidity;BMP_temperature;BMP_pressure;BME280_temperature;BME280_humidity;BME280_pressure;Samples;Min_cycle;Max_cycle;Signal;HPM_P1;HPM_P2
2023/04/02 00:00:10;;;;;;;1.80;1.70;;;16.70;66.50;17.60;99867.00;;;;4972407;28;20278;-64
2023/04/02 00:02:57;;;;;;;1.60;1.50;;;16.70;66.40;17.60;99879.00;;;;4989432;28;20748;-63
2023/04/02 00:05:33;;;;;;;1.60;1.50;;;16.70;66.50;17.60;99881.00;;;;4988394;28;20833;-63
2023/04/02 00:08:03;;;;;;;1.30;1.30;;;16.70;66.40;17.60;99879.00;;;;4989965;28;20199;-64
2023/04/02 00:10:47;;;;;;;1.27;1.27;;;16.60;66.30;17.50;99881.00;;;;4972273;28;20639;-64
2023/04/02 00:13:13;;;;;;;1.50;1.40;;;16.60;66.30;17.50;99893.00;;;;4989515;28;20192;-63
2023/04/02 00:15:45;;;;;;;1.50;1.40;;;16.60;66.30;17.50;99893.00;;;;4989640;28;20804;-63
2023/04/02 00:18:16;;;;;;;1.40;1.40;;;16.60;66.30;17.50;99898.00;;;;4988832;28;20309;-64
2023/04/02 00:20:50;;;;;;;1.47;1.40;;;16.60;66.20;17.50;99913.00;;;;4988366;28;20254;-65
2023/04/02 00:23:15;;;;;;;1.10;1.10;;;16.60;66.30;17.50;99885.00;;;;4988756;28;20200;-63
2023/04/02 00:25:44;;;;;;;1.20;1.20;;;16.60;66.10;17.50;99921.00;;;;4988179;28;20184;-64
2023/04/02 00:28:15;;;;;;;1.30;1.30;;;16.60;66.20;17.50;99913.00;;;;4987976;28;20267;-64
2023/04/02 00:31:10;;;;;;;1.10;1.10;;;16.60;66.10;17.50;99931.00;;;;4988054;28;20212;-63
2023/04/02 00:33:35;;;;;;;1.60;1.50;;;16.60;66.10;17.50;99921.00;;;;4995426;28;20213;-63
2023/04/02 00:36:01;;;;;;;1.30;1.30;;;16.60;66.00;17.50;99927.00;;;;4987977;28;20222;-62
2023/04/02 00:38:31;;;;;;;1.10;1.10;;;16.50;65.90;17.50;99938.00;;;;4987910;28;20247;-62
2023/04/02 00:41:05;;;;;;;1.00;1.00;;;16.50;65.90;17.50;99937.00;;;;4988146;28;20267;-62
2023/04/02 00:43:38;;;;;;;1.20;1.20;;;16.50;65.90;17.40;99943.00;;;;4987721;28;20251;-62
2023/04/02 00:46:09;;;;;;;0.80;0.80;;;16.50;65.80;17.20;99931.00;;;;4987571;28;20188;-63
2023/04/02 00:49:09;;;;;;;1.03;1.03;;;16.50;65.90;17.40;99955.00;;;;4987797;28;20596;-61
2023/04/02 00:51:40;;;;;;;1.10;1.10;;;16.50;65.80;17.40;99940.00;;;;4973347;28;20187;-62
2023/04/02 00:54:09;;;;;;;1.00;1.00;;;16.50;65.80;17.40;99967.00;;;;4987477;28;20195;-63
2023/04/02 00:56:41;;;;;;;1.00;1.00;;;16.50;65.70;17.40;99927.00;;;;4987957;28;20566;-62
2023/04/02 00:59:22;;;;;;;1.20;1.20;;;16.50;65.60;17.40;99970.00;;;;4971654;28;20323;-63
2023/04/02 01:02:00;;;;;;;1.10;1.10;;;16.50;65.60;17.40;99966.00;;;;4987700;28;20826;-64
2023/04/02 01:04:33;;;;;;;1.30;1.20;;;16.40;65.60;17.40;99964.00;;;;4988634;28;20240;-65
2023/04/02 01:07:03;;;;;;;1.20;1.20;;;16.40;65.50;17.30;99980.00;;;;4987544;28;20175;-64
2023/04/02 01:09:45;;;;;;;1.00;1.00;;;16.50;65.70;17.30;99987.00;;;;4987737;28;20567;-64
2023/04/02 01:12:31;;;;;;;1.40;1.30;;;16.40;65.50;17.30;99977.00;;;;4987475;28;20177;-63
2023/04/02 01:15:03;;;;;;;1.33;1.23;;;16.40;65.60;17.30;99994.00;;;;4992031;28;20172;-64
2023/04/02 01:18:05;;;;;;;1.00;1.00;;;16.40;65.60;17.30;100002.00;;;;4992090;28;20608;-64
2023/04/02 01:20:36;;;;;;;0.90;0.90;;;16.40;65.50;17.30;100001.00;;;;4966854;28;20709;-63
2023/04/02 01:23:17;;;;;;;0.90;0.90;;;16.40;65.50;17.30;100012.00;;;;4991519;28;20210;-63
2023/04/02 01:25:50;;;;;;;1.10;1.10;;;16.30;65.50;17.30;100017.00;;;;4991489;28;20172;-64
2023/04/02 01:29:00;;;;;;;0.73;0.73;;;16.40;65.50;17.30;100015.00;;;;4991642;28;20268;-62
2023/04/02 01:31:26;;;;;;;0.90;0.90;;;16.40;65.60;17.30;100023.00;;;;4974519;28;20223;-62
2023/04/02 01:33:52;;;;;;;1.20;1.20;;;16.30;65.40;17.20;100025.00;;;;4991141;28;20250;-63
2023/04/02 01:36:53;;;;;;;0.93;0.93;;;16.30;65.40;17.20;100013.00;;;;4943166;28;20218;-63
2023/04/02 01:39:42;;;;;;;1.00;1.00;;;16.40;65.50;17.20;100041.00;;;;4991407;28;20183;-64
2023/04/02 01:42:20;;;;;;;1.07;1.07;;;16.40;65.50;17.20;100044.00;;;;4992111;28;20184;-64
2023/04/02 01:45:05;;;;;;;0.80;0.80;;;16.30;65.40;17.20;100050.00;;;;4991113;28;20676;-64
2023/04/02 01:47:31;;;;;;;0.90;0.90;;;16.30;65.60;17.20;100047.00;;;;4992701;28;20268;-67
2023/04/02 01:50:03;;;;;;;1.03;1.03;;;16.30;65.40;17.20;100053.00;;;;4991425;28;20568;-64
2023/04/02 01:52:39;;;;;;;1.00;1.00;;;16.30;66.20;17.10;100053.00;;;;4974433;28;20696;-65
2023/04/02 01:55:07;;;;;;;0.80;0.80;;;16.30;65.40;17.10;100037.00;;;;4991111;28;20258;-63
2023/04/02 01:57:33;;;;;;;0.97;0.97;;;16.30;65.40;17.10;100073.00;;;;4991040;28;20172;-63
2023/04/02 02:00:00;;;;;;;0.60;0.60;;;16.30;65.30;17.10;100070.00;;;;4990799;28;20182;-63
2023/04/02 02:02:26;;;;;;;0.80;0.80;;;16.20;65.20;17.10;100051.00;;;;4990485;28;20247;-62
2023/04/02 02:04:52;;;;;;;0.83;0.83;;;16.30;65.20;17.10;100074.00;;;;4990814;28;20271;-63
2023/04/02 02:07:19;;;;;;;1.13;1.13;;;16.20;65.20;17.10;100076.00;;;;4990653;28;20176;-63
2023/04/02 02:09:45;;;;;;;0.80;0.80;;;16.20;65.10;17.10;100088.00;;;;4974320;28;20200;-63
2023/04/02 02:12:12;;;;;;;0.93;0.93;;;16.20;65.10;17.10;100060.00;;;;4958084;28;20183;-66
2023/04/02 02:14:38;;;;;;;0.77;0.77;;;16.20;65.00;17.10;100094.00;;;;4974504;28;20513;-63
2023/04/02 02:17:15;;;;;;;0.87;0.87;;;16.20;65.00;17.10;100099.00;;;;4990708;28;20166;-64
2023/04/02 02:19:44;;;;;;;0.83;0.83;;;16.20;65.00;17.10;100101.00;;;;4990787;28;20647;-66
2023/04/02 02:22:39;;;;;;;0.80;0.80;;;16.20;64.90;17.10;100109.00;;;;4990486;28;20180;-64
2023/04/02 02:25:10;;;;;;;0.80;0.80;;;16.20;64.90;17.00;100103.00;;;;4990445;28;20177;-63
2023/04/02 02:27:43;;;;;;;1.07;1.07;;;16.10;64.80;17.00;100111.00;;;;4990527;28;20183;-65
2023/04/02 02:30:18;;;;;;;0.70;0.70;;;16.10;64.70;17.00;100098.00;;;;4990253;28;20579;-62
2023/04/02 02:33:07;;;;;;;1.03;1.03;;;16.10;64.70;17.00;100123.00;;;;4986296;28;20196;-64
2023/04/02 02:35:40;;;;;;;1.03;1.03;;;16.10;64.70;17.00;100136.00;;;;4955802;28;20231;-64
2023/04/02 02:38:33;;;;;;;1.20;1.20;;;16.10;64.80;17.00;100136.00;;;;4986178;28;20256;-64
2023/04/02 02:41:32;;;;;;;1.03;1.03;;;16.10;64.70;17.00;100146.00;;;;4970715;28;20173;-64
2023/04/02 02:44:10;;;;;;;0.60;0.60;;;16.10;65.60;17.00;100147.00;;;;4984231;28;20705;-64
2023/04/02 02:47:18;;;;;;;0.87;0.87;;;16.10;64.70;17.00;100144.00;;;;4970454;28;20181;-66
2023/04/02 02:49:50;;;;;;;0.90;0.90;;;16.10;64.70;16.90;100163.00;;;;4986658;28;20297;-64
2023/04/02 02:52:27;;;;;;;0.80;0.80;;;16.00;64.50;16.90;100161.00;;;;4954163;28;20181;-65
2023/04/02 02:54:59;;;;;;;0.90;0.90;;;16.00;64.50;16.90;100150.00;;;;4970649;28;20177;-65
2023/04/02 02:57:28;;;;;;;0.90;0.90;;;16.00;64.40;16.90;100176.00;;;;4954795;28;20580;-65
2023/04/02 02:59:56;;;;;;;0.90;0.90;;;16.00;65.20;16.90;100182.00;;;;4970646;28;20547;-66
2023/04/02 03:02:23;;;;;;;0.80;0.80;;;16.00;64.40;16.90;100156.00;;;;4954314;28;20177;-64
2023/04/02 03:04:51;;;;;;;1.00;1.00;;;16.00;64.30;16.90;100184.00;;;;4954190;28;20515;-65
2023/04/02 03:07:18;;;;;;;0.97;0.97;;;16.00;64.40;16.90;100162.00;;;;4954501;28;20780;-64
2023/04/02 03:10:26;;;;;;;0.80;0.80;;;16.00;64.30;16.90;100202.00;;;;4970128;28;20272;-66
2023/04/02 03:12:56;;;;;;;1.10;1.10;;;16.00;64.30;16.80;100204.00;;;;4970118;28;20189;-66
2023/04/02 03:15:27;;;;;;;0.90;0.90;;;16.00;64.30;16.80;100203.00;;;;4954068;28;20173;-65
2023/04/02 03:18:11;;;;;;;0.80;0.80;;;15.90;64.10;16.80;100206.00;;;;4970228;28;20181;-65
2023/04/02 03:20:47;;;;;;;1.37;1.07;;;16.00;64.20;16.80;100216.00;;;;4954129;28;20184;-64
2023/04/02 03:23:19;;;;;;;1.20;1.20;;;15.90;64.10;16.80;100220.00;;;;4953836;28;20192;-64
2023/04/02 03:26:14;;;;;;;0.90;0.90;;;15.90;64.10;16.80;100221.00;;;;4969983;28;20873;-63
2023/04/02 03:29:18;;;;;;;1.00;1.00;;;15.90;64.10;16.80;100233.00;;;;4954126;28;20674;-66
2023/04/02 03:31:52;;;;;;;0.90;0.90;;;15.90;64.00;16.70;100243.00;;;;4937939;28;20620;-67
2023/04/02 03:34:40;;;;;;;1.20;1.20;;;15.90;64.10;16.80;100249.00;;;;4969609;28;20239;-63
2023/04/02 03:37:39;;;;;;;0.90;0.90;;;15.90;64.00;16.70;100244.00;;;;4997675;28;20238;-65
2023/04/02 03:40:23;;;;;;;0.97;0.97;;;15.90;64.10;16.70;100263.00;;;;4969376;28;20754;-67
2023/04/02 03:43:01;;;;;;;1.17;1.17;;;15.90;64.00;16.80;100257.00;;;;4968659;28;20236;-63
2023/04/02 03:45:31;;;;;;;4.73;1.60;;;15.90;64.00;16.80;100268.00;;;;4970126;28;20591;-66
2023/04/02 03:48:03;;;;;;;2.90;1.77;;;15.90;64.20;16.70;100269.00;;;;4969103;28;20176;-65
2023/04/02 03:50:41;;;;;;;5.20;2.10;;;15.90;64.40;16.70;100281.00;;;;4968806;28;20208;-66
2023/04/02 03:53:07;;;;;;;3.53;2.00;;;15.80;62.50;16.60;100282.00;;;;4968618;28;20192;-65
2023/04/02 03:55:35;;;;;;;2.20;2.00;;;15.70;62.20;16.50;100291.00;;;;4970093;28;20273;-63
2023/04/02 03:58:27;;;;;;;2.40;2.20;;;15.70;61.80;16.50;100287.00;;;;4968560;28;20169;-64
2023/04/02 04:00:54;;;;;;;3.10;2.20;;;15.60;61.00;16.40;100301.00;;;;4970021;28;20521;-64
2023/04/02 04:03:35;;;;;;;2.20;2.10;;;15.60;60.00;16.40;100313.00;;;;4968236;28;20704;-63
2023/04/02 04:06:09;;;;;;;2.40;2.20;;;15.60;59.40;16.30;100306.00;;;;4968224;28;20169;-65
2023/04/02 04:09:06;;;;;;;3.07;2.37;;;15.60;59.60;16.20;100309.00;;;;4969047;28;20177;-64
2023/04/02 04:11:35;;;;;;;2.60;2.40;;;15.50;58.60;16.20;100333.00;;;;4970066;28;20574;-64
2023/04/02 04:14:12;;;;;;;6.30;2.30;;;15.40;59.30;16.20;100323.00;;;;4952013;28;20193;-63
2023/04/02 04:16:54;;;;;;;2.23;1.90;;;15.40;59.10;16.20;100334.00;;;;4967962;28;20207;-63
2023/04/02 04:19:45;;;;;;;2.10;2.00;;;15.40;59.60;16.20;100319.00;;;;4970038;28;20185;-63
2023/04/02 04:22:30;;;;;;;2.87;2.00;;;15.40;59.80;16.20;100347.00;;;;4968470;28;20252;-57
2023/04/02 04:25:04;;;;;;;2.97;1.80;;;15.40;60.00;16.20;100330.00;;;;4984349;28;20223;-56
2023/04/02 04:27:37;;;;;;;2.77;1.73;;;15.40;60.20;16.20;100343.00;;;;4967972;28;20169;-59
2023/04/02 04:30:05;;;;;;;3.00;1.50;;;15.40;60.40;16.20;100354.00;;;;4968469;28;20345;-60
2023/04/02 04:32:37;;;;;;;2.03;1.80;;;15.40;60.50;16.30;100364.00;;;;4969151;28;20251;-57
2023/04/02 04:35:30;;;;;;;5.20;2.13;;;15.40;60.70;16.30;100376.00;;;;4952179;28;20177;-57
2023/04/02 04:38:14;;;;;;;2.37;1.83;;;15.40;60.80;16.30;100385.00;;;;4968135;28;20175;-59
2023/04/02 04:40:52;;;;;;;5.77;1.87;;;15.40;60.90;16.30;100378.00;;;;4968407;28;20464;-59
2023/04/02 04:43:44;;;;;;;1.73;1.60;;;15.40;61.10;16.30;100401.00;;;;4982544;28;20608;-58
2023/04/02 04:46:38;;;;;;;2.07;1.60;;;15.40;61.20;16.30;100407.00;;;;4967793;28;20211;-59
2023/04/02 04:49:24;;;;;;;2.47;1.80;;;15.40;61.40;16.30;100410.00;;;;4969264;28;20188;-59
2023/04/02 04:52:17;;;;;;;5.20;1.80;;;15.40;61.60;16.30;100414.00;;;;4969002;28;20173;-59
2023/04/02 04:54:43;;;;;;;2.10;1.40;;;15.40;61.70;16.30;100419.00;;;;4969490;28;20607;-59
2023/04/02 04:57:35;;;;;;;2.00;1.70;;;15.40;61.80;16.30;100427.00;;;;4969093;28;20225;-59
2023/04/02 05:00:11;;;;;;;2.77;1.70;;;15.40;61.80;16.20;100456.00;;;;4969244;28;20165;-58
2023/04/02 05:03:04;;;;;;;2.20;2.10;;;15.40;61.80;16.10;100372.00;;;;4968824;28;20193;-59
2023/04/02 05:05:32;;;;;;;3.23;2.60;;;15.30;59.60;16.00;100464.00;;;;4969176;28;20200;-59
2023/04/02 05:08:03;;;;;;;2.30;2.10;;;15.20;58.80;16.00;100474.00;;;;4969053;28;20165;-59
2023/04/02 05:10:40;;;;;;;2.30;2.10;;;15.20;58.80;15.90;100481.00;;;;4966185;28;20553;-59
2023/04/02 05:13:27;;;;;;;2.40;2.30;;;15.10;58.00;15.90;100473.00;;;;4969827;28;20200;-60
2023/04/02 05:16:59;;;;;;;2.60;2.40;;;15.10;57.70;15.80;100487.00;;;;5001752;28;20173;-59
2023/04/02 05:19:34;;;;;;;2.60;2.40;;;15.10;57.90;15.70;100494.00;;;;4974750;28;20184;-58
2023/04/02 05:22:11;;;;;;;2.37;2.27;;;15.00;58.10;15.70;100484.00;;;;4968802;28;20239;-58
2023/04/02 05:24:43;;;;;;;2.50;2.30;;;15.00;58.00;15.70;100494.00;;;;4969184;28;20168;-58
2023/04/02 05:27:36;;;;;;;2.60;2.40;;;15.00;57.80;15.60;100506.00;;;;4969715;28;20169;-58
2023/04/02 05:30:27;;;;;;;2.53;2.33;;;14.90;57.30;15.60;100518.00;;;;4970115;28;20689;-60
2023/04/02 05:33:06;;;;;;;2.90;2.70;;;14.90;57.50;15.60;100526.00;;;;4969810;28;20197;-59
2023/04/02 05:35:36;;;;;;;2.80;2.60;;;14.90;56.60;15.50;100528.00;;;;4983738;28;20769;-58
2023/04/02 05:38:02;;;;;;;2.80;2.60;;;14.90;56.40;15.50;100538.00;;;;4969777;28;20208;-60
2023/04/02 05:40:42;;;;;;;3.20;2.90;;;14.90;56.40;15.50;100545.00;;;;4968969;28;20208;-58
2023/04/02 05:43:09;;;;;;;2.63;2.43;;;14.90;56.10;15.40;100539.00;;;;4967218;28;20200;-59
2023/04/02 05:45:37;;;;;;;2.77;2.57;;;14.80;56.20;15.40;100546.00;;;;4984981;28;20224;-58
2023/04/02 05:48:16;;;;;;;2.77;2.53;;;14.80;56.30;15.40;100551.00;;;;4984538;28;20180;-59
2023/04/02 05:50:44;;;;;;;3.03;2.83;;;14.80;56.30;15.40;100560.00;;;;4952596;28;20212;-59
2023/04/02 05:53:35;;;;;;;2.80;2.60;;;14.70;56.30;15.30;100568.00;;;;4968546;28;20200;-59
2023/04/02 05:56:22;;;;;;;3.93;3.63;;;14.70;56.20;15.30;100577.00;;;;4969772;28;20175;-60
2023/04/02 05:59:03;;;;;;;3.80;3.50;;;14.70;56.20;15.30;100573.00;;;;4969888;28;20201;-58
2023/04/02 06:01:36;;;;;;;4.30;3.93;;;14.60;56.40;15.20;100575.00;;;;4988419;28;20181;-60
2023/04/02 06:04:16;;;;;;;4.70;4.30;;;14.60;56.00;15.00;100591.00;;;;4987829;28;20192;-58
2023/04/02 06:06:55;;;;;;;4.17;3.77;;;14.60;55.80;15.20;100598.00;;;;4971766;28;20259;-58
2023/04/02 06:09:45;;;;;;;4.20;3.70;;;14.60;56.10;15.20;100622.00;;;;4972355;28;20589;-58
2023/04/02 06:12:50;;;;;;;4.40;4.00;;;14.50;55.80;15.10;100620.00;;;;4987834;28;20181;-60
2023/04/02 06:15:20;;;;;;;4.30;3.90;;;14.60;55.90;15.10;100626.00;;;;4972227;28;20263;-58
2023/04/02 06:18:22;;;;;;;4.90;4.40;;;14.50;55.80;15.10;100635.00;;;;4972829;28;20181;-57
2023/04/02 06:20:48;;;;;;;4.00;3.60;;;14.50;55.90;15.10;100635.00;;;;4973712;28;20203;-57
2023/04/02 06:23:20;;;;;;;5.60;3.50;;;14.40;56.20;15.10;100642.00;;;;4987752;28;20189;-58
2023/04/02 06:26:08;;;;;;;3.63;3.20;;;14.50;56.70;15.20;100655.00;;;;4987198;28;20169;-56
2023/04/02 06:28:50;;;;;;;6.93;3.70;;;14.50;56.90;15.20;100637.00;;;;4971713;28;20181;-57
2023/04/02 06:31:59;;;;;;;4.23;3.53;;;14.50;57.00;15.30;100657.00;;;;4971642;28;20201;-57
2023/04/02 06:34:26;;;;;;;4.57;3.43;;;14.60;57.30;15.30;100678.00;;;;4975746;28;20310;-57
2023/04/02 06:36:58;;;;;;;9.10;3.20;;;14.60;57.40;15.30;100679.00;;;;4975057;28;20183;-57
2023/04/02 06:39:25;;;;;;;4.37;2.80;;;14.70;57.70;15.30;100683.00;;;;4975304;28;20627;-57
2023/04/02 06:42:14;;;;;;;3.70;2.97;;;14.70;57.80;15.50;100677.00;;;;4990051;28;20180;-59
2023/04/02 06:44:40;;;;;;;3.10;2.80;;;14.80;58.60;15.50;100690.00;;;;4976562;28;20331;-58
2023/04/02 06:47:17;;;;;;;3.60;2.70;;;14.80;58.00;15.60;100700.00;;;;4992103;28;20180;-57
2023/04/02 06:50:21;;;;;;;4.23;2.80;;;15.00;58.20;15.70;100699.00;;;;4990499;28;20676;-57
2023/04/02 06:52:53;;;;;;;3.73;2.50;;;15.10;58.20;15.80;100711.00;;;;4973738;28;20200;-57
2023/04/02 06:55:45;;;;;;;3.27;2.43;;;15.20;58.20;15.90;100712.00;;;;4991011;28;20175;-56
2023/04/02 06:58:11;;;;;;;2.80;2.60;;;15.40;58.30;16.00;100719.00;;;;4991034;28;20180;-56
2023/04/02 07:00:41;;;;;;;4.00;2.40;;;15.60;58.30;16.10;100727.00;;;;4991866;28;20180;-57
2023/04/02 07:03:20;;;;;;;4.27;2.50;;;15.70;58.30;16.20;100726.00;;;;4973242;28;20646;-57
2023/04/02 07:05:46;;;;;;;3.30;2.17;;;15.80;58.20;16.30;100737.00;;;;4974393;28;20211;-57
2023/04/02 07:08:12;;;;;;;3.10;2.23;;;16.00;58.40;16.40;100742.00;;;;4990362;28;20200;-56
2023/04/02 07:10:37;;;;;;;3.67;2.20;;;16.10;58.40;16.50;100738.00;;;;4990739;28;20674;-57
2023/04/02 07:13:04;;;;;;;2.40;2.20;;;16.20;58.30;16.60;100745.00;;;;4990995;28;20215;-57
2023/04/02 07:15:30;;;;;;;2.60;2.23;;;16.30;58.30;16.70;100758.00;;;;4991439;28;20583;-58
2023/04/02 07:17:57;;;;;;;3.37;2.10;;;16.50;58.40;16.80;100750.00;;;;4991348;28;20187;-58
2023/04/02 07:20:32;;;;;;;2.57;2.37;;;16.50;58.30;16.90;100769.00;;;;4990318;28;20208;-58
2023/04/02 07:22:57;;;;;;;2.37;2.17;;;16.60;58.40;17.00;100766.00;;;;4973450;28;20207;-56
2023/04/02 07:25:24;;;;;;;5.07;2.17;;;16.60;58.30;17.10;100772.00;;;;4990344;28;20204;-56
2023/04/02 07:27:50;;;;;;;2.20;2.00;;;16.70;58.50;17.10;100776.00;;;;4991126;28;20175;-54
2023/04/02 07:30:16;;;;;;;2.27;2.00;;;16.80;58.60;17.20;100778.00;;;;4991298;28;20208;-59
2023/04/02 07:32:42;;;;;;;2.30;2.10;;;16.90;58.70;17.30;100791.00;;;;4986251;28;20209;-56
2023/04/02 07:35:09;;;;;;;2.40;2.20;;;16.80;58.70;17.30;100793.00;;;;4988897;28;20180;-57
2023/04/02 07:37:35;;;;;;;2.20;2.00;;;16.90;58.70;17.30;100804.00;;;;4990426;28;20670;-57
2023/04/02 07:40:01;;;;;;;2.73;2.20;;;16.90;58.90;17.40;100801.00;;;;4989367;28;20183;-57
2023/04/02 07:42:27;;;;;;;2.40;2.20;;;16.90;59.10;17.40;100804.00;;;;4989059;28;20176;-56
2023/04/02 07:44:52;;;;;;;1.80;1.70;;;16.90;59.10;17.50;100806.00;;;;4990317;28;20246;-58
2023/04/02 07:47:18;;;;;;;2.00;1.90;;;17.00;59.20;17.50;100829.00;;;;4990290;28;20733;-58
2023/04/02 07:49:44;;;;;;;3.40;2.13;;;17.00;59.20;17.50;100834.00;;;;4990077;28;20234;-56
2023/04/02 07:52:10;;;;;;;1.87;1.77;;;17.00;59.20;17.60;100831.00;;;;4990632;28;20706;-57
2023/04/02 07:54:37;;;;;;;2.00;1.90;;;17.00;59.30;17.60;100839.00;;;;4989753;28;20211;-57
2023/04/02 07:57:02;;;;;;;2.97;2.10;;;17.00;59.40;17.60;100839.00;;;;4990791;28;20251;-59
2023/04/02 07:59:28;;;;;;;1.97;1.87;;;17.10;59.40;17.60;100859.00;;;;4989162;28;20177;-58
2023/04/02 08:01:54;;;;;;;2.53;2.10;;;17.10;59.40;17.70;100850.00;;;;4990728;28;20599;-51
2023/04/02 08:04:20;;;;;;;2.10;1.90;;;17.10;59.90;17.70;100853.00;;;;4989056;28;20215;-50
2023/04/02 08:06:46;;;;;;;2.10;1.90;;;17.20;59.80;17.70;100864.00;;;;4990009;28;20239;-50
2023/04/02 08:09:14;;;;;;;2.40;2.00;;;17.20;59.90;17.80;100876.00;;;;4987553;28;20221;-49
2023/04/02 08:11:41;;;;;;;2.60;2.17;;;17.20;60.30;17.80;100879.00;;;;4990261;28;20204;-49
2023/04/02 08:14:09;;;;;;;4.17;2.13;;;17.20;60.20;17.80;100881.00;;;;4989535;28;20189;-50
2023/04/02 08:16:49;;;;;;;2.40;2.00;;;17.20;60.80;17.80;100886.00;;;;4989600;28;20841;-51
2023/04/02 08:19:15;;;;;;;3.17;2.20;;;17.20;61.20;17.80;100896.00;;;;4989321;28;20211;-51
2023/04/02 08:21:41;;;;;;;2.30;2.10;;;17.30;61.50;17.90;100909.00;;;;4989243;28;20271;-50
2023/04/02 08:24:07;;;;;;;2.20;2.00;;;17.30;61.60;17.90;100904.00;;;;4987307;28;20690;-49
2023/04/02 08:26:32;;;;;;;3.53;2.13;;;17.30;61.50;17.90;100909.00;;;;4989496;28;20181;-49
2023/04/02 08:28:58;;;;;;;2.10;1.90;;;17.30;61.40;17.90;100917.00;;;;4988413;28;20762;-51
2023/04/02 08:31:24;;;;;;;2.70;2.00;;;17.30;61.30;17.90;100921.00;;;;4988794;28;20290;-50
2023/04/02 08:33:49;;;;;;;2.30;2.10;;;17.30;61.20;17.90;100923.00;;;;4988498;28;20194;-50
2023/04/02 08:36:16;;;;;;;3.37;2.00;;;17.30;61.30;17.90;100932.00;;;;4989295;28;20226;-50
2023/04/02 08:38:41;;;;;;;2.10;1.90;;;17.30;61.40;17.90;100941.00;;;;4971627;28;20914;-50
2023/04/02 08:41:09;;;;;;;2.70;1.93;;;17.30;62.20;18.00;100946.00;;;;4989630;28;20193;-50
2023/04/02 08:43:59;;;;;;;3.50;2.00;;;17.30;61.40;18.00;100947.00;;;;4955771;28;20232;-50
2023/04/02 08:46:50;;;;;;;2.63;1.97;;;17.30;61.30;18.00;100938.00;;;;4988165;28;20193;-49
2023/04/02 08:49:27;;;;;;;2.37;2.17;;;17.40;61.20;18.00;100964.00;;;;4972658;28;20279;-48
2023/04/02 08:51:53;;;;;;;2.20;2.00;;;17.40;61.30;18.00;100965.00;;;;4973389;28;20632;-50
2023/04/02 08:54:29;;;;;;;2.30;2.10;;;17.40;61.40;18.00;100972.00;;;;4988139;28;20196;-49
2023/04/02 08:57:14;;;;;;;2.20;1.90;;;17.40;61.50;18.00;100985.00;;;;4988335;28;20180;-49
2023/04/02 08:59:41;;;;;;;2.07;1.90;;;17.40;61.50;18.10;100991.00;;;;5002408;28;20180;-50
2023/04/02 09:02:30;;;;;;;1.83;1.73;;;17.40;61.40;18.10;101002.00;;;;4987249;28;20690;-50
2023/04/02 09:04:57;;;;;;;2.37;1.90;;;17.40;61.50;18.10;101002.00;;;;4984445;28;20180;-49
2023/04/02 09:07:22;;;;;;;2.20;1.90;;;17.40;61.50;18.10;101007.00;;;;4983950;28;20708;-51
2023/04/02 09:09:48;;;;;;;2.03;1.90;;;17.40;61.50;18.10;101006.00;;;;4984718;28;20173;-51
2023/04/02 09:12:20;;;;;;;2.10;1.90;;;17.40;61.60;18.10;101016.00;;;;4987473;28;20181;-51
2023/04/02 09:15:05;;;;;;;1.93;1.83;;;17.40;61.80;18.10;101015.00;;;;4989503;28;20677;-49
2023/04/02 09:17:31;;;;;;;5.30;1.93;;;17.50;62.30;18.20;101023.00;;;;4996259;28;20191;-53
2023/04/02 09:20:23;;;;;;;3.10;1.90;;;17.60;62.30;18.20;101026.00;;;;4978247;28;20677;-50
2023/04/02 09:22:50;;;;;;;4.20;1.90;;;17.50;62.10;18.20;101023.00;;;;5001671;28;20203;-50
2023/04/02 09:25:27;;;;;;;3.53;2.00;;;17.50;62.40;18.20;101035.00;;;;5003768;28;20250;-50
2023/04/02 09:27:55;;;;;;;2.63;1.80;;;17.50;62.50;18.20;101035.00;;;;4987706;28;20203;-51
2023/04/02 09:30:46;;;;;;;2.00;1.80;;;17.50;62.50;18.20;101036.00;;;;4970704;28;20202;-51
2023/04/02 09:33:11;;;;;;;4.63;2.03;;;17.50;62.50;18.20;101044.00;;;;4987489;28;20514;-50
2023/04/02 09:35:55;;;;;;;2.27;1.80;;;17.60;62.70;18.20;101045.00;;;;4991676;28;20789;-49
2023/04/02 09:38:21;;;;;;;2.30;1.90;;;17.60;62.60;18.20;101050.00;;;;4989301;28;20192;-50
2023/04/02 09:41:06;;;;;;;2.33;1.93;;;17.60;62.50;18.30;101061.00;;;;4992863;28;20191;-49
2023/04/02 09:43:34;;;;;;;2.00;1.90;;;17.60;62.50;18.30;101067.00;;;;4994482;28;20239;-50
2023/04/02 09:46:14;;;;;;;3.33;2.10;;;17.60;62.70;18.30;101071.00;;;;4992465;28;20205;-51
2023/04/02 09:48:49;;;;;;;2.47;1.73;;;17.60;62.90;18.30;101081.00;;;;4992130;28;20564;-51
2023/04/02 09:51:20;;;;;;;3.13;1.90;;;17.60;62.90;18.30;101079.00;;;;4990065;28;20213;-50
2023/04/02 09:54:01;;;;;;;3.37;1.87;;;17.60;63.00;18.30;101079.00;;;;4986743;28;20707;-49
2023/04/02 09:56:27;;;;;;;1.90;1.80;;;17.60;63.20;18.30;101096.00;;;;4973236;28;20748;-51
2023/04/02 09:59:11;;;;;;;2.57;2.03;;;17.60;63.20;18.30;101102.00;;;;4972798;28;20264;-52
2023/04/02 10:01:44;;;;;;;1.70;1.60;;;17.60;63.10;18.30;101094.00;;;;4972482;28;21000;-50
2023/04/02 10:04:43;;;;;;;3.37;2.00;;;17.70;63.10;18.40;101108.00;;;;4986422;28;20218;-51
2023/04/02 10:07:46;;;;;;;2.90;1.93;;;17.70;63.00;18.40;101121.00;;;;4990063;28;20888;-50
2023/04/02 10:10:41;;;;;;;1.77;1.67;;;17.70;63.20;18.40;101130.00;;;;4991711;28;20303;-51
2023/04/02 10:13:43;;;;;;;1.77;1.60;;;17.60;63.10;18.30;101141.00;;;;4989885;28;20261;-51
2023/04/02 10:16:25;;;;;;;1.90;1.80;;;17.60;63.30;18.30;101139.00;;;;4987210;28;20173;-51
2023/04/02 10:18:56;;;;;;;1.90;1.80;;;17.70;63.00;18.30;101144.00;;;;4975899;28;20233;-51
2023/04/02 10:21:32;;;;;;;3.90;2.00;;;17.70;63.20;18.30;101143.00;;;;4989324;28;20686;-50
2023/04/02 10:23:58;;;;;;;2.97;1.90;;;17.70;63.60;18.30;101157.00;;;;4973196;28;20678;-51
2023/04/02 10:26:48;;;;;;;3.10;1.70;;;17.70;63.60;18.40;101160.00;;;;5005938;28;20178;-50
2023/04/02 10:30:01;;;;;;;1.80;1.70;;;17.70;63.50;18.40;101165.00;;;;4990922;28;20165;-51
2023/04/02 10:32:45;;;;;;;1.70;1.60;;;17.70;63.50;18.40;101175.00;;;;4990630;28;20170;-50
2023/04/02 10:35:27;;;;;;;1.90;1.80;;;17.80;63.60;18.40;101166.00;;;;4991163;28;20166;-50
2023/04/02 10:38:24;;;;;;;2.20;1.70;;;17.70;63.50;18.40;101190.00;;;;5006938;28;20177;-51
2023/04/02 10:41:22;;;;;;;1.80;1.70;;;17.80;63.90;18.40;101177.00;;;;5007870;28;20177;-51
2023/04/02 10:44:23;;;;;;;1.90;1.80;;;17.70;63.70;18.40;101181.00;;;;4991047;28;20225;-50
2023/04/02 10:47:26;;;;;;;1.87;1.77;;;17.70;63.40;18.40;101177.00;;;;4971850;28;20177;-50
2023/04/02 10:50:13;;;;;;;1.73;1.63;;;17.70;63.40;18.40;101192.00;;;;4971829;28;20228;-50
2023/04/02 10:52:48;;;;;;;2.53;1.77;;;17.70;63.30;18.30;101189.00;;;;4972632;28;20196;-50
2023/04/02 10:55:24;;;;;;;4.83;1.90;;;17.60;64.00;18.30;101201.00;;;;4956552;28;20767;-50
2023/04/02 10:57:50;;;;;;;1.80;1.70;;;17.60;63.30;18.30;101195.00;;;;4971148;28;20179;-50
2023/04/02 11:00:27;;;;;;;1.80;1.70;;;17.60;63.20;18.30;101202.00;;;;4971458;28;20194;-50
2023/04/02 11:03:42;;;;;;;1.80;1.70;;;17.60;63.30;18.30;101206.00;;;;4955781;28;20197;-50
2023/04/02 11:06:52;;;;;;;1.87;1.77;;;17.60;63.80;18.30;101221.00;;;;4950462;28;20596;-50
2023/04/02 11:09:24;;;;;;;1.90;1.80;;;17.50;63.80;18.30;101226.00;;;;4970461;28;20657;-50
2023/04/02 11:11:52;;;;;;;2.47;1.90;;;17.60;63.90;18.30;101210.00;;;;4971171;28;20199;-51
2023/04/02 11:14:27;;;;;;;2.33;1.60;;;17.60;63.80;18.30;101234.00;;;;4970972;28;20195;-50
2023/04/02 11:16:54;;;;;;;1.80;1.70;;;17.60;63.80;18.30;101245.00;;;;4971962;28;20176;-50
2023/04/02 11:19:26;;;;;;;1.60;1.50;;;17.60;63.80;18.30;101244.00;;;;4986856;28;20730;-50
2023/04/02 11:22:02;;;;;;;1.90;1.80;;;17.50;63.70;18.30;101245.00;;;;4972037;28;20653;-50
2023/04/02 11:24:38;;;;;;;1.90;1.80;;;17.60;63.90;18.20;101248.00;;;;4986354;28;20204;-51
2023/04/02 11:27:10;;;;;;;2.00;1.90;;;17.50;63.90;18.20;101264.00;;;;4986874;28;20724;-50
2023/04/02 11:30:06;;;;;;;1.90;1.80;;;17.50;63.90;18.20;101262.00;;;;4972067;28;20258;-51